createdAt,value
2023-05-17T00:00:07.174Z,14.60
2023-05-17T00:02:59.454Z,14.52
2023-05-17T00:05:31.869Z,14.51
2023-05-17T00:08:04.035Z,14.51
2023-05-17T00:10:36.488Z,14.46
2023-05-17T00:13:08.837Z,14.52
2023-05-17T00:15:41.099Z,14.53
2023-05-17T00:18:13.463Z,14.53
2023-05-17T00:20:45.618Z,14.37
2023-05-17T00:23:18.404Z,14.38
2023-05-17T00:25:51.226Z,14.34
2023-05-17T00:28:23.732Z,14.20
2023-05-17T00:30:56.286Z,14.15
2023-05-17T00:33:28.665Z,14.06
2023-05-17T00:36:01.283Z,13.92
2023-05-17T00:38:33.486Z,13.90
2023-05-17T00:41:07.034Z,13.87
2023-05-17T00:43:39.497Z,13.81
2023-05-17T00:46:11.800Z,13.85
2023-05-17T00:48:44.926Z,13.82
2023-05-17T00:51:17.919Z,13.73
2023-05-17T00:53:51.328Z,13.67
2023-05-17T00:56:24.940Z,13.64
2023-05-17T00:59:10.794Z,13.65
2023-05-17T01:02:06.521Z,13.55
2023-05-17T01:04:42.621Z,13.50
2023-05-17T01:07:14.833Z,13.39
2023-05-17T01:09:47.302Z,13.31
2023-05-17T01:12:31.561Z,13.35
2023-05-17T01:15:14.518Z,13.43
2023-05-17T01:17:55.813Z,13.37
2023-05-17T01:20:44.537Z,13.39
2023-05-17T01:23:46.456Z,13.32
2023-05-17T01:26:25.397Z,13.33
2023-05-17T01:29:00.972Z,13.37
2023-05-17T01:31:33.953Z,13.36
2023-05-17T01:34:10.135Z,13.31
2023-05-17T01:36:43.378Z,13.32
2023-05-17T01:39:15.657Z,13.21
2023-05-17T01:41:56.464Z,13.28
2023-05-17T01:44:34.418Z,13.26
2023-05-17T01:47:12.471Z,13.20
2023-05-17T01:49:49.120Z,13.13
2023-05-17T01:52:31.777Z,13.08
2023-05-17T01:55:10.755Z,13.11
2023-05-17T01:57:44.946Z,13.15
2023-05-17T02:00:19.092Z,13.07
2023-05-17T02:02:51.531Z,13.05
2023-05-17T02:05:26.841Z,13.05
2023-05-17T02:07:59.734Z,13.03
2023-05-17T02:10:32.647Z,13.10
2023-05-17T02:13:05.119Z,13.11
2023-05-17T02:15:37.367Z,12.99
2023-05-17T02:18:13.129Z,12.99
2023-05-17T02:20:45.633Z,12.89
2023-05-17T02:23:19.564Z,12.84
2023-05-17T02:25:52.146Z,12.84
2023-05-17T02:28:24.790Z,12.82
2023-05-17T02:30:57.697Z,12.77
2023-05-17T02:33:30.057Z,12.79
2023-05-17T02:36:02.531Z,12.80
2023-05-17T02:38:43.059Z,12.85
2023-05-17T02:41:19.530Z,12.82
2023-05-17T02:43:52.428Z,12.82
2023-05-17T02:46:25.062Z,12.82
2023-05-17T02:48:57.635Z,12.85
2023-05-17T02:51:31.216Z,12.86
2023-05-17T02:54:03.728Z,12.92
2023-05-17T02:56:36.762Z,12.91
2023-05-17T02:59:09.925Z,12.87
2023-05-17T03:01:45.268Z,12.86
2023-05-17T03:04:20.435Z,12.82
2023-05-17T03:06:56.240Z,12.77
2023-05-17T03:09:46.620Z,12.74
2023-05-17T03:12:23.512Z,12.73
2023-05-17T03:14:56.657Z,12.65
2023-05-17T03:17:29.860Z,12.65
2023-05-17T03:20:02.758Z,12.64
2023-05-17T03:22:35.782Z,12.64
2023-05-17T03:25:09.545Z,12.68
2023-05-17T03:27:46.219Z,12.69
2023-05-17T03:30:34.929Z,12.69
2023-05-17T03:33:08.048Z,12.72
2023-05-17T03:35:40.816Z,12.65
2023-05-17T03:38:17.634Z,12.64
2023-05-17T03:40:52.621Z,12.59
2023-05-17T03:43:25.362Z,12.61
2023-05-17T03:45:58.091Z,12.47
2023-05-17T03:48:35.184Z,12.49
2023-05-17T03:51:09.176Z,12.46
2023-05-17T03:53:43.682Z,12.43
2023-05-17T03:56:18.171Z,12.37
2023-05-17T03:58:50.438Z,12.35
2023-05-17T04:01:22.976Z,12.44
2023-05-17T04:03:55.747Z,12.47
2023-05-17T04:06:28.420Z,12.39
2023-05-17T04:09:00.961Z,12.40
2023-05-17T04:11:34.448Z,12.42
2023-05-17T04:14:07.758Z,12.38
2023-05-17T04:16:40.598Z,12.21
2023-05-17T04:19:13.347Z,12.19
2023-05-17T04:21:47.460Z,12.17
2023-05-17T04:24:21.998Z,12.20
2023-05-17T04:26:53.493Z,12.15
2023-05-17T04:29:29.251Z,12.15
2023-05-17T04:32:02.184Z,12.17
2023-05-17T04:34:35.434Z,12.16
2023-05-17T04:37:08.704Z,12.11
2023-05-17T04:39:41.976Z,12.15
2023-05-17T04:42:14.809Z,12.13
2023-05-17T04:44:51.001Z,12.20
2023-05-17T04:47:24.486Z,12.15
2023-05-17T04:49:58.051Z,12.04
2023-05-17T04:52:30.786Z,12.02
2023-05-17T04:55:03.769Z,12.02
2023-05-17T04:57:36.618Z,11.97
2023-05-17T05:00:15.428Z,11.83
2023-05-17T05:02:50.113Z,11.91
2023-05-17T05:05:27.608Z,11.80
2023-05-17T05:08:00.484Z,11.94
2023-05-17T05:10:33.506Z,11.89
2023-05-17T05:13:06.142Z,11.88
2023-05-17T05:15:39.750Z,12.07
2023-05-17T05:18:12.383Z,12.06
2023-05-17T05:20:45.108Z,12.06
2023-05-17T05:23:18.823Z,12.09
2023-05-17T05:25:53.334Z,12.03
2023-05-17T05:28:26.288Z,12.26
2023-05-17T05:31:01.484Z,12.30
2023-05-17T05:33:39.842Z,12.27
2023-05-17T05:36:13.397Z,12.31
2023-05-17T05:38:46.549Z,12.33
2023-05-17T05:41:19.322Z,12.38
2023-05-17T05:43:51.994Z,12.40
2023-05-17T05:46:24.746Z,12.45
2023-05-17T05:48:59.865Z,12.35
2023-05-17T05:51:32.851Z,12.34
2023-05-17T05:54:06.661Z,12.42
2023-05-17T05:56:42.006Z,12.53
2023-05-17T05:59:16.191Z,12.54
2023-05-17T06:01:48.496Z,12.60
2023-05-17T06:04:22.722Z,12.56
2023-05-17T06:07:02.484Z,12.64
2023-05-17T06:09:34.940Z,12.74
2023-05-17T06:12:07.887Z,12.80
2023-05-17T06:14:40.470Z,12.86
2023-05-17T06:17:12.873Z,12.92
2023-05-17T06:19:45.381Z,12.91
2023-05-17T06:22:17.880Z,13.07
2023-05-17T06:24:50.210Z,13.10
2023-05-17T06:27:22.549Z,13.16
2023-05-17T06:29:54.905Z,13.19
2023-05-17T06:32:27.318Z,13.26
2023-05-17T06:35:00.034Z,13.30
2023-05-17T06:37:33.100Z,13.30
2023-05-17T06:40:31.674Z,13.20
2023-05-17T06:43:02.810Z,13.30
2023-05-17T06:45:37.936Z,13.31
2023-05-17T06:48:10.448Z,13.29
2023-05-17T06:50:42.856Z,13.40
2023-05-17T06:53:15.452Z,13.38
2023-05-17T06:55:47.871Z,13.45
2023-05-17T06:58:20.261Z,13.50
2023-05-17T07:00:52.702Z,13.44
2023-05-17T07:03:25.130Z,13.51
2023-05-17T07:05:57.562Z,13.37
2023-05-17T07:08:30.119Z,13.42
2023-05-17T07:11:03.084Z,13.52
2023-05-17T07:13:36.350Z,13.49
2023-05-17T07:16:10.155Z,13.55
2023-05-17T07:18:42.436Z,13.45
2023-05-17T07:21:14.996Z,13.53
2023-05-17T07:23:49.402Z,13.57
2023-05-17T07:26:22.324Z,13.62
2023-05-17T07:28:54.827Z,13.58
2023-05-17T07:31:27.180Z,13.69
2023-05-17T07:33:59.790Z,13.92
2023-05-17T07:36:32.760Z,13.98
2023-05-17T07:39:06.039Z,13.98
2023-05-17T07:41:38.619Z,14.15
2023-05-17T07:44:10.868Z,14.23
2023-05-17T07:46:43.299Z,14.23
2023-05-17T07:49:16.246Z,14.31
2023-05-17T07:51:48.647Z,14.37
2023-05-17T07:54:28.158Z,14.49
2023-05-17T07:57:00.633Z,14.47
2023-05-17T07:59:33.331Z,14.58
2023-05-17T08:02:06.202Z,14.59
2023-05-17T08:04:38.557Z,14.68
2023-05-17T08:07:11.273Z,14.77
2023-05-17T08:09:45.574Z,14.80
2023-05-17T08:12:18.008Z,14.80
2023-05-17T08:14:50.279Z,14.77
2023-05-17T08:17:25.018Z,14.90
2023-05-17T08:19:57.473Z,14.92
2023-05-17T08:22:30.026Z,14.98
2023-05-17T08:25:02.407Z,15.04
2023-05-17T08:27:34.848Z,14.89
2023-05-17T08:30:11.885Z,14.75
2023-05-17T08:32:47.529Z,14.74
2023-05-17T08:35:20.479Z,14.73
2023-05-17T08:37:53.019Z,14.69
2023-05-17T08:40:26.152Z,14.53
2023-05-17T08:42:59.518Z,14.63
2023-05-17T08:45:33.982Z,14.80
2023-05-17T08:48:07.554Z,14.94
2023-05-17T08:50:41.222Z,14.85
2023-05-17T08:53:14.587Z,14.80
2023-05-17T08:55:52.325Z,14.99
2023-05-17T08:58:32.362Z,14.89
2023-05-17T09:01:05.713Z,14.95
2023-05-17T09:03:41.552Z,14.91
2023-05-17T09:06:14.884Z,14.84
2023-05-17T09:08:48.318Z,14.78
2023-05-17T09:11:28.694Z,14.85
2023-05-17T09:14:04.885Z,14.91
2023-05-17T09:16:38.731Z,15.05
2023-05-17T09:19:15.178Z,14.94
2023-05-17T09:21:49.945Z,14.91
2023-05-17T09:24:31.139Z,15.03
2023-05-17T09:27:07.405Z,14.70
2023-05-17T09:29:42.475Z,14.78
2023-05-17T09:32:18.834Z,14.82
2023-05-17T09:34:52.709Z,14.79
2023-05-17T09:37:26.739Z,14.88
2023-05-17T09:39:59.641Z,14.95
2023-05-17T09:42:36.778Z,15.06
2023-05-17T09:45:10.517Z,15.09
2023-05-17T09:47:43.079Z,15.05
2023-05-17T09:50:20.542Z,14.97
2023-05-17T09:52:52.912Z,15.14
2023-05-17T09:55:29.776Z,15.08
2023-05-17T09:58:06.451Z,15.01
2023-05-17T10:00:39.478Z,15.03
2023-05-17T10:03:14.214Z,15.09
2023-05-17T10:05:47.878Z,15.02
2023-05-17T10:08:23.223Z,14.86
2023-05-17T10:10:56.951Z,14.92
2023-05-17T10:13:37.030Z,14.86
2023-05-17T10:16:10.268Z,14.99
2023-05-17T10:18:43.339Z,14.90
2023-05-17T10:21:16.108Z,14.82
2023-05-17T10:23:49.451Z,14.81
2023-05-17T10:26:22.173Z,14.84
2023-05-17T10:28:56.361Z,14.94
2023-05-17T10:31:30.703Z,14.93
2023-05-17T10:34:04.635Z,14.81
2023-05-17T10:36:37.148Z,14.88
2023-05-17T10:39:11.016Z,14.95
2023-05-17T10:41:48.531Z,14.93
2023-05-17T10:44:21.987Z,14.93
2023-05-17T10:46:59.817Z,14.91
2023-05-17T10:49:36.232Z,14.97
2023-05-17T10:52:17.708Z,15.01
2023-05-17T10:54:51.291Z,14.91
2023-05-17T10:57:49.321Z,14.94
2023-05-17T11:00:31.349Z,14.81
2023-05-17T11:03:16.810Z,14.95
2023-05-17T11:06:24.074Z,15.11
2023-05-17T11:09:17.788Z,15.17
2023-05-17T11:12:09.940Z,15.28
2023-05-17T11:14:55.466Z,15.26
2023-05-17T11:17:29.626Z,15.25
2023-05-17T11:20:31.453Z,15.29
2023-05-17T11:23:05.665Z,15.39
2023-05-17T11:25:39.650Z,15.31
2023-05-17T11:28:19.929Z,15.41
2023-05-17T11:30:53.772Z,15.35
2023-05-17T11:33:41.309Z,15.45
2023-05-17T11:36:22.424Z,15.42
2023-05-17T11:39:13.199Z,15.55
2023-05-17T11:41:53.733Z,15.58
2023-05-17T11:44:31.205Z,15.59
2023-05-17T11:47:09.522Z,15.60
2023-05-17T11:49:42.769Z,15.53
2023-05-17T11:52:17.609Z,15.62
2023-05-17T11:54:51.746Z,15.64
2023-05-17T11:57:24.383Z,15.65
2023-05-17T12:00:04.880Z,15.76
2023-05-17T12:02:44.646Z,15.76
2023-05-17T12:05:22.759Z,15.79
2023-05-17T12:07:55.246Z,15.94
2023-05-17T12:10:27.863Z,15.89
2023-05-17T12:13:00.359Z,15.87
2023-05-17T12:15:33.884Z,15.99
2023-05-17T12:18:06.943Z,16.01
2023-05-17T12:20:39.482Z,16.13
2023-05-17T12:23:12.024Z,16.07
2023-05-17T12:25:44.254Z,16.13
2023-05-17T12:28:22.242Z,16.20
2023-05-17T12:30:58.939Z,16.32
2023-05-17T12:33:33.572Z,16.28
2023-05-17T12:36:07.357Z,16.21
2023-05-17T12:38:41.646Z,16.25
2023-05-17T12:41:15.854Z,16.31
2023-05-17T12:43:48.633Z,16.40
2023-05-17T12:46:23.783Z,16.28
2023-05-17T12:48:56.750Z,16.39
2023-05-17T12:51:29.067Z,16.39
2023-05-17T12:54:01.240Z,16.29
2023-05-17T12:56:33.753Z,16.29
2023-05-17T12:59:13.402Z,16.33
2023-05-17T13:01:48.397Z,16.29
2023-05-17T13:04:22.502Z,16.24
2023-05-17T13:06:56.107Z,16.26
2023-05-17T13:09:31.099Z,16.29
2023-05-17T13:12:06.860Z,16.28
2023-05-17T13:14:44.417Z,16.31
2023-05-17T13:17:21.732Z,16.45
2023-05-17T13:19:55.157Z,16.23
2023-05-17T13:22:27.555Z,16.14
2023-05-17T13:24:59.884Z,16.23
2023-05-17T13:27:32.381Z,16.19
2023-05-17T13:30:05.147Z,16.37
2023-05-17T13:32:37.511Z,16.35
2023-05-17T13:35:11.166Z,16.37
2023-05-17T13:37:43.302Z,16.31
2023-05-17T13:40:17.253Z,16.31
2023-05-17T13:42:49.426Z,16.28
2023-05-17T13:45:21.924Z,16.33
2023-05-17T13:47:54.443Z,16.35
2023-05-17T13:50:27.557Z,16.45
2023-05-17T13:53:01.907Z,16.43
2023-05-17T13:55:34.600Z,16.43
2023-05-17T13:58:07.575Z,16.57
2023-05-17T14:00:42.697Z,16.50
2023-05-17T14:03:15.617Z,16.57
2023-05-17T14:05:50.463Z,16.53
2023-05-17T14:08:22.974Z,16.58
2023-05-17T14:10:55.408Z,16.60
2023-05-17T14:13:28.603Z,16.61
2023-05-17T14:16:00.729Z,16.58
2023-05-17T14:18:33.250Z,16.64
2023-05-17T14:21:07.237Z,16.68
2023-05-17T14:23:39.599Z,16.68
2023-05-17T14:26:12.056Z,16.75
2023-05-17T14:28:44.333Z,16.70
2023-05-17T14:31:16.656Z,16.75
2023-05-17T14:33:49.123Z,16.59
2023-05-17T14:36:21.448Z,16.60
2023-05-17T14:38:53.773Z,16.55
2023-05-17T14:41:26.067Z,16.58
2023-05-17T14:43:58.412Z,16.57
2023-05-17T14:46:30.695Z,16.52
2023-05-17T14:49:03.260Z,16.43
2023-05-17T14:51:35.790Z,16.57
2023-05-17T14:54:08.582Z,16.63
2023-05-17T14:56:40.955Z,16.63
2023-05-17T14:59:13.197Z,16.51
2023-05-17T15:01:45.356Z,16.55
2023-05-17T15:04:18.096Z,16.55
2023-05-17T15:06:51.097Z,16.50
2023-05-17T15:09:24.284Z,16.58
2023-05-17T15:11:56.551Z,16.52
2023-05-17T15:14:28.911Z,16.48
2023-05-17T15:17:02.410Z,16.53
2023-05-17T15:19:34.923Z,16.58
2023-05-17T15:22:07.925Z,16.63
2023-05-17T15:24:40.397Z,16.70
2023-05-17T15:27:15.587Z,16.75
2023-05-17T15:29:47.844Z,16.64
2023-05-17T15:32:20.085Z,16.57
2023-05-17T15:34:52.709Z,16.68
2023-05-17T15:37:25.099Z,16.68
2023-05-17T15:39:57.186Z,16.66
2023-05-17T15:42:29.602Z,16.59
2023-05-17T15:45:02.005Z,16.50
2023-05-17T15:47:43.202Z,16.57
2023-05-17T15:50:16.568Z,16.57
2023-05-17T15:52:49.343Z,16.42
2023-05-17T15:55:21.663Z,16.44
2023-05-17T15:57:54.010Z,16.45
2023-05-17T16:00:27.789Z,16.37
2023-05-17T16:03:00.098Z,16.45
2023-05-17T16:05:33.846Z,16.49
2023-05-17T16:08:06.758Z,16.48
2023-05-17T16:10:39.656Z,16.52
2023-05-17T16:13:11.909Z,16.52
2023-05-17T16:15:44.283Z,16.48
2023-05-17T16:18:17.078Z,16.53
2023-05-17T16:20:57.965Z,16.52
2023-05-17T16:23:30.649Z,16.53
2023-05-17T16:26:03.147Z,16.53
2023-05-17T16:28:37.060Z,16.58
2023-05-17T16:31:09.811Z,16.59
2023-05-17T16:33:42.662Z,16.56
2023-05-17T16:36:15.126Z,16.65
2023-05-17T16:38:47.462Z,16.65
2023-05-17T16:41:20.204Z,16.66
2023-05-17T16:43:52.623Z,16.65
2023-05-17T16:46:25.267Z,16.62
2023-05-17T16:48:57.795Z,16.63
2023-05-17T16:51:30.274Z,16.61
2023-05-17T16:54:03.412Z,16.63
2023-05-17T16:56:35.865Z,16.56
2023-05-17T16:59:08.162Z,16.60
2023-05-17T17:01:40.376Z,16.56
2023-05-17T17:04:12.838Z,16.48
2023-05-17T17:06:45.141Z,16.48
2023-05-17T17:09:17.467Z,16.42
2023-05-17T17:11:49.583Z,16.45
2023-05-17T17:14:22.516Z,16.47
2023-05-17T17:16:54.897Z,16.46
2023-05-17T17:19:27.734Z,16.43
2023-05-17T17:22:00.264Z,16.43
2023-05-17T17:24:33.062Z,16.41
2023-05-17T17:27:05.734Z,16.34
2023-05-17T17:29:38.218Z,16.17
2023-05-17T17:32:11.596Z,16.27
2023-05-17T17:34:44.485Z,16.21
2023-05-17T17:37:17.015Z,16.22
2023-05-17T17:39:49.450Z,16.16
2023-05-17T17:42:22.018Z,16.10
2023-05-17T17:44:55.199Z,16.08
2023-05-17T17:47:27.475Z,15.97
2023-05-17T17:50:00.024Z,15.97
2023-05-17T17:52:32.702Z,15.96
2023-05-17T17:55:06.142Z,15.86
2023-05-17T17:57:38.580Z,15.74
2023-05-17T18:00:16.171Z,15.69
2023-05-17T18:02:48.483Z,15.60
2023-05-17T18:05:20.917Z,15.65
2023-05-17T18:07:53.600Z,15.64
2023-05-17T18:10:25.943Z,15.58
2023-05-17T18:12:58.323Z,15.47
2023-05-17T18:15:31.334Z,15.50
2023-05-17T18:18:04.182Z,15.53
2023-05-17T18:20:38.451Z,15.50
2023-05-17T18:23:11.081Z,15.45
2023-05-17T18:25:43.914Z,15.42
2023-05-17T18:28:18.252Z,15.38
2023-05-17T18:30:52.288Z,15.36
2023-05-17T18:33:24.992Z,15.37
2023-05-17T18:35:58.389Z,15.32
2023-05-17T18:38:31.483Z,15.31
2023-05-17T18:41:04.084Z,15.30
2023-05-17T18:43:36.610Z,15.24
2023-05-17T18:46:09.691Z,15.24
2023-05-17T18:48:42.071Z,15.17
2023-05-17T18:51:15.883Z,15.12
2023-05-17T18:53:48.245Z,15.08
2023-05-17T18:56:23.439Z,15.04
2023-05-17T18:58:56.322Z,15.02
2023-05-17T19:01:29.148Z,15.02
2023-05-17T19:04:01.497Z,14.95
2023-05-17T19:06:34.239Z,14.88
2023-05-17T19:09:06.566Z,14.90
2023-05-17T19:11:38.995Z,14.86
2023-05-17T19:14:11.607Z,14.86
2023-05-17T19:16:43.950Z,14.85
2023-05-17T19:19:16.399Z,14.81
2023-05-17T19:21:50.451Z,14.78
2023-05-17T19:24:23.016Z,14.77
2023-05-17T19:26:55.786Z,14.73
2023-05-17T19:29:29.716Z,14.70
2023-05-17T19:32:02.039Z,14.57
2023-05-17T19:34:34.617Z,14.62
2023-05-17T19:37:07.318Z,14.62
2023-05-17T19:39:39.864Z,14.63
2023-05-17T19:42:13.050Z,14.57
2023-05-17T19:44:45.617Z,14.54
2023-05-17T19:47:18.335Z,14.55
2023-05-17T19:49:50.732Z,14.56
2023-05-17T19:52:23.446Z,14.51
2023-05-17T19:54:59.006Z,14.40
2023-05-17T19:57:32.103Z,14.48
2023-05-17T20:00:04.951Z,14.45
2023-05-17T20:02:37.464Z,14.42
2023-05-17T20:05:10.861Z,14.39
2023-05-17T20:07:43.418Z,14.26
2023-05-17T20:10:16.099Z,14.38
2023-05-17T20:12:48.902Z,14.36
2023-05-17T20:15:22.778Z,14.35
2023-05-17T20:17:55.348Z,14.30
2023-05-17T20:20:27.754Z,14.30
2023-05-17T20:23:00.297Z,14.27
2023-05-17T20:25:32.855Z,14.24
2023-05-17T20:28:05.723Z,14.20
2023-05-17T20:30:37.979Z,14.14
2023-05-17T20:33:10.832Z,14.08
2023-05-17T20:35:44.035Z,14.05
2023-05-17T20:38:16.737Z,13.97
2023-05-17T20:40:48.921Z,13.92
2023-05-17T20:43:21.442Z,13.88
2023-05-17T20:45:53.808Z,13.84
2023-05-17T20:48:26.493Z,13.80
2023-05-17T20:50:58.869Z,13.77
2023-05-17T20:53:31.772Z,13.78
2023-05-17T20:56:04.547Z,13.80
2023-05-17T20:58:37.241Z,13.81
2023-05-17T21:01:10.178Z,13.72
2023-05-17T21:03:43.319Z,13.68
2023-05-17T21:06:15.857Z,13.68
2023-05-17T21:08:48.407Z,13.66
2023-05-17T21:11:22.107Z,13.62
2023-05-17T21:13:54.502Z,13.54
2023-05-17T21:16:26.756Z,13.56
2023-05-17T21:18:59.160Z,13.55
2023-05-17T21:21:31.278Z,13.55
2023-05-17T21:24:03.567Z,13.56
2023-05-17T21:26:36.972Z,13.55
2023-05-17T21:29:12.175Z,13.45
2023-05-17T21:31:44.283Z,13.44
2023-05-17T21:34:16.428Z,13.51
2023-05-17T21:36:48.602Z,13.46
2023-05-17T21:39:20.636Z,13.48
2023-05-17T21:41:53.076Z,13.39
2023-05-17T21:44:25.461Z,13.27
2023-05-17T21:46:59.074Z,13.26
2023-05-17T21:49:31.554Z,13.32
2023-05-17T21:52:03.688Z,13.30
2023-05-17T21:54:36.225Z,13.27
2023-05-17T21:57:08.696Z,13.32
2023-05-17T21:59:41.064Z,13.30
2023-05-17T22:02:13.442Z,13.31
2023-05-17T22:04:45.684Z,13.31
2023-05-17T22:07:17.996Z,13.27
2023-05-17T22:12:50.186Z,13.32
2023-05-17T22:15:23.407Z,13.30
2023-05-17T22:17:56.023Z,13.29
2023-05-17T22:20:29.468Z,13.26
2023-05-17T22:23:03.154Z,13.25
2023-05-17T22:25:35.618Z,13.27
2023-05-17T22:28:07.924Z,13.27
2023-05-17T22:30:40.941Z,13.18
2023-05-17T22:33:16.432Z,13.26
2023-05-17T22:35:53.645Z,13.24
2023-05-17T22:38:26.091Z,13.28
2023-05-17T22:40:58.382Z,13.26
2023-05-17T22:43:30.751Z,13.27
2023-05-17T22:46:03.081Z,13.24
2023-05-17T22:48:37.464Z,13.08
2023-05-17T22:51:10.096Z,13.21
2023-05-17T22:53:42.473Z,13.20
2023-05-17T22:56:15.104Z,13.20
2023-05-17T22:58:47.556Z,13.18
2023-05-17T23:01:20.113Z,13.16
2023-05-17T23:03:52.414Z,13.14
2023-05-17T23:06:26.248Z,13.11
2023-05-17T23:09:00.320Z,13.09
2023-05-17T23:11:35.117Z,13.07
2023-05-17T23:14:05.942Z,13.04
2023-05-17T23:16:38.382Z,13.03
2023-05-17T23:19:10.851Z,13.01
2023-05-17T23:21:43.705Z,12.99
2023-05-17T23:24:16.228Z,12.98
2023-05-17T23:26:48.910Z,12.97
2023-05-17T23:29:21.591Z,12.96
2023-05-17T23:31:54.493Z,12.94
2023-05-17T23:34:26.870Z,12.92
2023-05-17T23:36:59.261Z,12.91
2023-05-17T23:39:31.549Z,12.92
2023-05-17T23:42:03.844Z,12.88
2023-05-17T23:44:36.001Z,12.83
2023-05-17T23:47:10.419Z,12.78
2023-05-17T23:49:42.760Z,12.84
2023-05-17T23:52:15.146Z,12.84
2023-05-17T23:54:48.439Z,12.83
2023-05-17T23:57:20.621Z,12.82
2023-05-17T23:59:53.403Z,12.82
